Time;durP1;ratioP1;P1;durP2;ratioP2;P2;SDS_P1;SDS_P2;PMS_P1;PMS_P2;Temp;Humidity;BMP_temperature;BMP_pressure;BME280_temperature;BME280_humidity;BME280_pressure;Samples;Min_cycle;Max_cycle;Signal;HPM_P1;HPM_P2
2023/01/15 00:01:48;;;;;;;0.32;0.20;;;7.50;99.90;;;;;;5078747;28;19951;-58
2023/01/15 00:04:13;;;;;;;;;;;7.50;99.90;;;;;;5081680;28;20029;-54
2023/01/15 00:06:41;;;;;;;1.17;0.40;;;7.40;99.90;;;;;;5078193;28;20330;-58
2023/01/15 00:09:08;;;;;;;0.57;0.30;;;7.30;99.90;;;;;;5080354;28;20032;-58
2023/01/15 00:11:33;;;;;;;0.98;0.40;;;7.20;99.90;;;;;;5084842;28;20037;-58
2023/01/15 00:13:59;;;;;;;;;;;7.10;99.90;;;;;;5078884;28;20036;-58
2023/01/15 00:16:26;;;;;;;0.55;0.30;;;7.10;99.90;;;;;;5080820;28;19960;-54
2023/01/15 00:18:57;;;;;;;0.40;0.20;;;7.10;99.90;;;;;;5068001;28;20132;-55
2023/01/15 00:21:23;;;;;;;0.50;0.30;;;7.10;99.90;;;;;;5068197;28;20040;-56
2023/01/15 00:29:20;;;;;;;0.88;0.30;;;7.10;99.90;;;;;;5067386;28;20039;-56
2023/01/15 00:32:02;;;;;;;2.65;0.30;;;7.10;99.90;;;;;;5066564;28;20044;-58
2023/01/15 00:34:29;;;;;;;0.57;0.22;;;6.90;99.90;;;;;;5074344;28;20411;-60
2023/01/15 00:36:55;;;;;;;0.63;0.30;;;6.80;99.90;;;;;;5068490;28;20556;-58
2023/01/15 00:39:22;;;;;;;1.95;0.47;;;6.60;99.90;;;;;;5066872;28;20044;-58
2023/01/15 00:41:48;;;;;;;1.75;0.30;;;6.40;99.90;;;;;;5067517;28;20040;-59
2023/01/15 00:44:14;;;;;;;0.88;0.40;;;6.30;99.90;;;;;;5070381;28;20044;-57
2023/01/15 00:46:40;;;;;;;1.52;0.35;;;6.20;99.90;;;;;;5065670;28;20054;-55
2023/01/15 00:49:06;;;;;;;2.10;0.40;;;6.10;99.90;;;;;;5068298;28;20087;-60
2023/01/15 00:51:31;;;;;;;;;;;6.00;99.90;;;;;;5068030;28;20032;-55
2023/01/15 00:53:57;;;;;;;1.33;0.50;;;5.90;99.90;;;;;;5067868;28;19942;-55
2023/01/15 00:56:23;;;;;;;1.15;0.47;;;5.80;99.90;;;;;;5067888;28;20048;-56
2023/01/15 00:58:48;;;;;;;0.88;0.45;;;5.70;99.90;;;;;;5067775;28;20032;-59
2023/01/15 01:01:15;;;;;;;0.65;0.40;;;5.70;99.90;;;;;;5062481;28;20457;-55
2023/01/15 01:03:41;;;;;;;4.72;0.40;;;5.60;99.90;;;;;;5064443;28;20075;-58
2023/01/15 01:06:06;;;;;;;2.35;0.57;;;5.60;99.90;;;;;;5067106;28;20153;-57
2023/01/15 01:08:32;;;;;;;;;;;5.50;99.90;;;;;;5067765;28;20029;-58
2023/01/15 01:11:09;;;;;;;1.27;0.43;;;5.40;99.90;;;;;;5064785;28;19913;-59
2023/01/15 01:13:36;;;;;;;1.42;0.40;;;5.40;99.90;;;;;;5059757;28;20047;-54
2023/01/15 01:16:03;;;;;;;1.08;0.50;;;5.40;99.90;;;;;;5065426;28;20040;-57
2023/01/15 01:18:28;;;;;;;3.00;0.40;;;5.30;99.90;;;;;;5067844;28;20048;-58
2023/01/15 01:20:54;;;;;;;1.00;0.40;;;5.30;99.90;;;;;;5066720;28;20396;-57
2023/01/15 01:23:22;;;;;;;0.60;0.30;;;5.20;99.90;;;;;;5065510;28;20025;-55
2023/01/15 01:25:48;;;;;;;0.70;0.28;;;5.30;99.90;;;;;;5067037;28;20046;-59
2023/01/15 01:28:13;;;;;;;1.38;0.50;;;5.30;99.90;;;;;;5064714;28;20040;-59
2023/01/15 01:30:40;;;;;;;1.08;0.30;;;5.30;99.90;;;;;;5061761;28;20059;-59
2023/01/15 01:33:06;;;;;;;3.72;0.50;;;5.20;99.90;;;;;;5064725;28;20034;-54
2023/01/15 01:35:32;;;;;;;2.42;0.60;;;5.30;99.90;;;;;;5067213;28;20040;-53
2023/01/15 01:37:58;;;;;;;1.95;0.38;;;5.30;99.90;;;;;;5066501;28;20396;-55
2023/01/15 01:40:24;;;;;;;0.55;0.40;;;5.30;99.90;;;;;;5063745;28;20082;-57
2023/01/15 01:42:49;;;;;;;2.20;0.32;;;5.30;99.90;;;;;;5067296;28;20385;-57
2023/01/15 01:45:25;;;;;;;1.67;0.35;;;5.20;99.90;;;;;;5068663;28;20059;-54
2023/01/15 01:48:05;;;;;;;1.38;0.20;;;5.20;99.90;;;;;;5066988;28;20040;-59
2023/01/15 01:50:33;;;;;;;0.95;0.35;;;5.20;99.90;;;;;;5065188;28;20036;-57
2023/01/15 01:53:05;;;;;;;0.30;0.25;;;5.20;99.90;;;;;;5066050;28;20068;-54
2023/01/15 01:55:33;;;;;;;0.20;0.20;;;5.10;99.90;;;;;;5066260;28;20700;-57
2023/01/15 01:58:03;;;;;;;0.88;0.20;;;5.10;99.90;;;;;;5067534;28;20037;-57
2023/01/15 02:00:31;;;;;;;1.35;0.25;;;5.10;99.90;;;;;;5064331;28;20056;-57
2023/01/15 02:02:58;;;;;;;0.45;0.20;;;4.90;99.90;;;;;;5065271;28;20511;-59
2023/01/15 02:05:38;;;;;;;0.20;0.20;;;4.90;99.90;;;;;;5063473;28;20049;-58
2023/01/15 02:08:04;;;;;;;0.20;0.20;;;4.90;99.90;;;;;;5065779;28;20040;-58
2023/01/15 02:10:30;;;;;;;0.47;0.20;;;4.90;99.90;;;;;;5064694;28;20037;-57
2023/01/15 02:13:07;;;;;;;2.22;0.20;;;5.00;99.90;;;;;;5063162;28;20041;-53
2023/01/15 02:15:38;;;;;;;0.80;0.30;;;5.00;99.90;;;;;;5064370;28;20079;-56
2023/01/15 02:18:15;;;;;;;2.20;0.10;;;4.90;99.90;;;;;;5061726;28;20925;-58
2023/01/15 02:20:55;;;;;;;0.73;0.32;;;4.80;99.90;;;;;;5060182;28;20123;-56
2023/01/15 02:23:44;;;;;;;0.30;0.20;;;4.80;99.90;;;;;;5064555;28;20044;-56
2023/01/15 02:28:45;;;;;;;0.10;0.10;;;4.80;99.90;;;;;;5045422;28;20076;-59
2023/01/15 02:31:25;;;;;;;0.75;0.20;;;4.70;99.90;;;;;;5046444;28;20036;-57
2023/01/15 02:34:02;;;;;;;0.10;0.10;;;4.60;99.90;;;;;;5044184;28;20497;-59
2023/01/15 02:36:31;;;;;;;0.32;0.13;;;4.50;99.90;;;;;;5027413;28;20171;-58
2023/01/15 02:39:00;;;;;;;0.55;0.25;;;4.30;99.90;;;;;;5020365;28;20041;-59
2023/01/15 02:41:30;;;;;;;1.02;0.30;;;4.20;99.90;;;;;;5017874;28;20151;-58
2023/01/15 02:43:57;;;;;;;0.75;0.30;;;4.10;99.90;;;;;;5025199;28;20094;-53
2023/01/15 02:46:27;;;;;;;0.82;0.30;;;4.10;99.90;;;;;;5027389;28;20045;-60
2023/01/15 02:48:56;;;;;;;2.30;0.35;;;4.00;99.90;;;;;;5024469;28;20099;-56
2023/01/15 02:51:26;;;;;;;0.35;0.20;;;4.00;99.90;;;;;;5019655;28;20053;-57
2023/01/15 02:53:55;;;;;;;0.88;0.40;;;3.90;99.90;;;;;;5005984;28;20041;-56
2023/01/15 02:56:25;;;;;;;0.30;0.30;;;3.90;99.90;;;;;;5023208;28;20120;-59
2023/01/15 02:58:55;;;;;;;1.30;0.30;;;3.90;99.90;;;;;;5022621;28;20069;-55
2023/01/15 03:01:33;;;;;;;0.20;0.20;;;3.90;99.90;;;;;;5016528;28;20041;-56
2023/01/15 03:04:39;;;;;;;1.13;0.30;;;3.90;99.90;;;;;;5027318;28;20055;-59
2023/01/15 03:07:16;;;;;;;2.17;0.30;;;4.00;99.90;;;;;;4976277;28;20081;-56
2023/01/15 03:09:42;;;;;;;2.28;0.30;;;3.90;99.90;;;;;;5017774;28;20167;-58
2023/01/15 03:12:16;;;;;;;0.22;0.15;;;3.90;99.90;;;;;;5027024;28;20163;-57
2023/01/15 03:14:45;;;;;;;2.53;0.55;;;3.90;99.90;;;;;;5015075;28;20037;-57
2023/01/15 03:17:18;;;;;;;0.60;0.30;;;3.90;99.90;;;;;;5025795;28;20045;-53
2023/01/15 03:19:56;;;;;;;0.40;0.20;;;3.90;99.90;;;;;;5014972;28;20037;-55
2023/01/15 03:22:32;;;;;;;1.17;0.40;;;3.90;99.90;;;;;;5017491;28;20041;-56
2023/01/15 03:25:29;;;;;;;0.63;0.20;;;3.90;99.90;;;;;;5019788;28;20034;-50
2023/01/15 03:27:57;;;;;;;;;;;3.90;99.90;;;;;;5009469;28;20764;-54
2023/01/15 03:30:22;;;;;;;2.40;0.30;;;3.90;99.90;;;;;;5017631;28;20573;-52
2023/01/15 03:32:48;;;;;;;0.80;0.35;;;3.80;99.90;;;;;;5027424;28;20113;-57
2023/01/15 03:35:48;;;;;;;1.58;0.30;;;3.80;99.90;;;;;;5026132;28;20041;-58
2023/01/15 03:38:17;;;;;;;0.68;0.30;;;3.80;99.90;;;;;;5035435;28;20038;-62
2023/01/15 03:40:57;;;;;;;2.00;0.32;;;3.80;99.90;;;;;;5018630;28;20047;-59
2023/01/15 03:43:58;;;;;;;0.82;0.30;;;3.80;99.90;;;;;;5022100;28;20041;-57
2023/01/15 03:46:41;;;;;;;1.33;0.43;;;3.80;99.90;;;;;;5003235;28;20057;-56
2023/01/15 03:49:19;;;;;;;1.92;0.30;;;3.80;99.90;;;;;;5020708;28;20040;-54
2023/01/15 03:52:08;;;;;;;0.40;0.25;;;3.70;99.90;;;;;;5022171;28;20037;-57
2023/01/15 03:54:43;;;;;;;1.90;0.30;;;3.80;99.90;;;;;;5024287;28;20033;-54
2023/01/15 03:57:21;;;;;;;1.67;0.40;;;3.80;99.90;;;;;;5026640;28;20075;-58
2023/01/15 03:59:57;;;;;;;1.70;0.30;;;3.90;99.90;;;;;;4997327;28;20052;-59
2023/01/15 04:02:24;;;;;;;3.17;0.40;;;3.90;99.90;;;;;;5020606;28;20060;-58
2023/01/15 04:04:51;;;;;;;1.48;0.70;;;3.80;99.90;;;;;;5015500;28;20120;-56
2023/01/15 04:07:17;;;;;;;1.63;0.30;;;3.80;99.90;;;;;;5023661;28;20045;-57
2023/01/15 04:09:43;;;;;;;4.57;0.68;;;3.80;99.90;;;;;;5026058;28;20041;-56
2023/01/15 04:12:09;;;;;;;5.18;0.40;;;3.80;99.90;;;;;;5024910;28;20529;-59
2023/01/15 04:14:34;;;;;;;2.67;0.50;;;3.80;99.90;;;;;;5004720;28;20045;-57
2023/01/15 04:17:00;;;;;;;2.47;0.52;;;3.80;99.90;;;;;;5031566;28;20045;-52
2023/01/15 04:19:26;;;;;;;1.17;0.40;;;3.90;99.90;;;;;;5028490;28;20038;-51
2023/01/15 04:21:51;;;;;;;0.65;0.40;;;3.80;99.90;;;;;;5022677;28;20044;-52
2023/01/15 04:24:17;;;;;;;2.50;0.57;;;3.80;99.90;;;;;;5025898;28;20034;-54
2023/01/15 04:26:42;;;;;;;0.70;0.30;;;3.90;99.90;;;;;;5028011;28;20057;-51
2023/01/15 04:29:08;;;;;;;3.08;0.57;;;3.90;99.90;;;;;;5026277;28;20072;-57
2023/01/15 04:31:35;;;;;;;1.40;0.40;;;3.80;99.90;;;;;;5018296;28;20044;-57
2023/01/15 04:34:01;;;;;;;1.58;0.43;;;3.80;99.90;;;;;;5022909;28;20037;-60
2023/01/15 04:36:28;;;;;;;1.05;0.40;;;3.70;99.90;;;;;;5024555;28;20072;-60
2023/01/15 04:38:53;;;;;;;1.20;0.40;;;3.60;99.90;;;;;;5027013;28;20057;-59
2023/01/15 04:44:07;;;;;;;3.28;0.60;;;3.50;99.90;;;;;;5026146;28;20041;-57
2023/01/15 04:46:41;;;;;;;2.25;0.50;;;3.50;99.90;;;;;;5031028;28;20071;-59
2023/01/15 04:49:13;;;;;;;2.17;0.28;;;3.50;99.90;;;;;;5026312;28;20049;-55
2023/01/15 04:51:39;;;;;;;1.63;0.40;;;3.40;99.90;;;;;;5018391;28;20033;-57
2023/01/15 04:54:06;;;;;;;0.55;0.38;;;3.40;99.90;;;;;;5031246;28;20502;-59
2023/01/15 04:56:36;;;;;;;1.30;0.40;;;3.40;99.90;;;;;;5027650;28;20045;-59
2023/01/15 04:59:02;;;;;;;1.33;0.43;;;3.40;99.90;;;;;;5033183;28;20452;-55
2023/01/15 05:01:27;;;;;;;0.73;0.20;;;3.40;99.90;;;;;;5020903;28;20051;-60
2023/01/15 05:03:53;;;;;;;2.90;0.55;;;3.40;99.90;;;;;;5031673;28;20689;-60
2023/01/15 05:06:19;;;;;;;2.28;0.40;;;3.30;99.90;;;;;;5024093;28;20073;-60
2023/01/15 05:08:45;;;;;;;9.02;0.63;;;3.30;99.90;;;;;;5032611;28;20100;-59
2023/01/15 05:11:11;;;;;;;4.30;0.47;;;3.30;99.90;;;;;;5023591;28;20029;-57
2023/01/15 05:13:36;;;;;;;1.75;0.40;;;3.30;99.90;;;;;;5016427;28;20037;-57
2023/01/15 05:16:11;;;;;;;0.65;0.28;;;3.40;99.90;;;;;;5030004;28;20056;-60
2023/01/15 05:18:37;;;;;;;0.40;0.35;;;3.40;99.90;;;;;;5019596;28;20041;-60
2023/01/15 05:21:03;;;;;;;1.70;0.75;;;3.40;99.90;;;;;;5020375;28;20478;-59
2023/01/15 05:23:29;;;;;;;0.82;0.30;;;3.30;99.90;;;;;;5026622;28;20065;-60
2023/01/15 05:25:54;;;;;;;1.65;0.47;;;3.30;99.90;;;;;;5025613;28;20045;-55
2023/01/15 05:28:20;;;;;;;3.55;0.60;;;3.40;99.90;;;;;;5032912;28;20895;-60
2023/01/15 05:30:45;;;;;;;3.80;0.63;;;3.40;99.90;;;;;;5028092;28;20447;-56
2023/01/15 05:33:11;;;;;;;4.07;1.05;;;3.40;99.90;;;;;;5029057;28;20035;-55
2023/01/15 05:35:37;;;;;;;4.57;0.70;;;3.40;99.90;;;;;;5024414;28;20077;-58
2023/01/15 05:38:05;;;;;;;3.30;1.10;;;3.40;99.90;;;;;;5022881;28;20362;-55
2023/01/15 05:40:30;;;;;;;6.05;0.93;;;3.40;99.90;;;;;;5023186;28;20308;-56
2023/01/15 05:42:56;;;;;;;7.43;1.40;;;3.40;99.90;;;;;;5022595;28;20754;-55
2023/01/15 05:45:22;;;;;;;2.60;0.60;;;3.40;99.90;;;;;;5025829;28;20052;-55
2023/01/15 05:47:47;;;;;;;4.63;0.70;;;3.40;99.90;;;;;;5025103;28;20033;-58
2023/01/15 05:50:14;;;;;;;9.27;0.90;;;3.40;99.90;;;;;;5024434;28;20580;-56
2023/01/15 05:52:39;;;;;;;2.15;0.57;;;3.40;99.90;;;;;;4989092;28;20029;-59
2023/01/15 05:55:05;;;;;;;5.28;0.60;;;3.40;99.90;;;;;;5024731;28;20047;-59
2023/01/15 05:57:31;;;;;;;6.22;0.60;;;3.30;99.90;;;;;;5026321;28;20128;-58
2023/01/15 05:59:57;;;;;;;1.35;0.57;;;3.40;99.90;;;;;;5023389;28;20041;-54
2023/01/15 06:02:23;;;;;;;6.47;0.80;;;3.40;99.90;;;;;;5019346;28;20517;-57
2023/01/15 06:04:49;;;;;;;3.30;0.60;;;3.40;99.90;;;;;;5035989;28;20142;-58
2023/01/15 06:07:16;;;;;;;6.22;1.25;;;3.40;99.90;;;;;;5028729;28;20519;-55
2023/01/15 06:09:43;;;;;;;3.92;0.98;;;3.40;99.90;;;;;;5014808;28;20068;-59
2023/01/15 06:12:08;;;;;;;5.93;0.80;;;3.40;99.90;;;;;;5026851;28;20043;-57
2023/01/15 06:14:34;;;;;;;3.05;0.98;;;3.40;99.90;;;;;;5024528;28;20116;-57
2023/01/15 06:17:00;;;;;;;4.07;0.80;;;3.40;99.90;;;;;;5028642;28;20076;-56
2023/01/15 06:19:26;;;;;;;5.22;1.00;;;3.40;99.90;;;;;;5029393;28;20144;-57
2023/01/15 06:21:52;;;;;;;2.47;0.70;;;3.40;99.90;;;;;;5023383;28;20191;-55
2023/01/15 06:24:18;;;;;;;10.07;1.75;;;3.40;99.90;;;;;;5031237;28;20567;-55
2023/01/15 06:26:44;;;;;;;5.07;1.00;;;3.40;99.90;;;;;;5025612;28;20425;-59
2023/01/15 06:29:10;;;;;;;2.85;1.00;;;3.40;99.90;;;;;;5024606;28;20037;-56
2023/01/15 06:31:36;;;;;;;5.28;0.80;;;3.40;99.90;;;;;;5019698;28;20034;-58
2023/01/15 06:34:02;;;;;;;3.60;0.95;;;3.40;99.90;;;;;;5018563;28;20042;-58
2023/01/15 06:36:28;;;;;;;7.25;0.93;;;3.50;99.90;;;;;;5017086;28;20056;-55
2023/01/15 06:38:54;;;;;;;8.85;1.20;;;3.50;99.90;;;;;;5023282;28;20029;-53
2023/01/15 06:49:44;;;;;;;10.68;1.25;;;3.50;99.90;;;;;;5014647;28;20049;-55
2023/01/15 06:52:09;;;;;;;7.07;1.13;;;3.50;99.90;;;;;;5000681;28;20148;-51
2023/01/15 06:54:35;;;;;;;8.98;1.05;;;3.40;99.90;;;;;;5019043;28;20050;-53
2023/01/15 06:57:01;;;;;;;5.72;1.00;;;3.40;99.90;;;;;;5015047;28;20057;-57
2023/01/15 06:59:26;;;;;;;5.88;0.90;;;3.40;99.90;;;;;;5029940;28;20071;-55
2023/01/15 07:01:52;;;;;;;11.52;1.25;;;3.50;99.90;;;;;;5001884;28;20037;-55
2023/01/15 07:04:18;;;;;;;10.85;1.52;;;3.50;99.90;;;;;;5027197;28;20052;-55
2023/01/15 07:06:43;;;;;;;10.68;1.38;;;3.50;99.90;;;;;;5026461;28;20483;-58
2023/01/15 07:09:09;;;;;;;6.00;0.82;;;3.50;99.90;;;;;;5022376;28;20032;-60
2023/01/15 07:11:48;;;;;;;5.90;0.95;;;3.50;99.90;;;;;;5025332;28;20088;-59
2023/01/15 07:14:22;;;;;;;6.82;0.98;;;3.50;99.90;;;;;;5020554;28;20068;-60
2023/01/15 07:16:48;;;;;;;2.13;0.73;;;3.60;99.90;;;;;;5027339;28;20045;-56
2023/01/15 07:19:15;;;;;;;4.80;0.90;;;3.50;99.90;;;;;;5023943;28;20356;-57
2023/01/15 07:21:41;;;;;;;5.22;0.95;;;3.50;99.90;;;;;;5036509;28;20037;-61
2023/01/15 07:24:07;;;;;;;5.78;1.10;;;3.60;99.90;;;;;;5033815;28;20033;-58
2023/01/15 07:26:33;;;;;;;6.22;1.52;;;3.50;99.90;;;;;;5024287;28;20052;-57
2023/01/15 07:28:58;;;;;;;5.45;0.85;;;3.60;99.90;;;;;;5023502;28;20041;-56
2023/01/15 07:31:24;;;;;;;7.57;1.30;;;3.50;99.90;;;;;;5012407;28;20049;-55
2023/01/15 07:33:49;;;;;;;6.82;1.27;;;3.50;99.90;;;;;;5036935;28;20033;-51
2023/01/15 07:36:15;;;;;;;7.47;1.25;;;3.50;99.90;;;;;;5035290;28;20116;-57
2023/01/15 07:38:41;;;;;;;7.70;1.02;;;3.50;99.90;;;;;;5023413;28;20067;-57
2023/01/15 07:49:47;;;;;;;2.95;0.90;;;3.50;99.90;;;;;;5011771;28;20046;-58
2023/01/15 07:52:18;;;;;;;8.25;1.17;;;3.50;99.90;;;;;;5025300;28;20120;-53
2023/01/15 07:54:45;;;;;;;10.15;1.30;;;3.50;99.90;;;;;;5017879;28;20037;-54
2023/01/15 07:57:12;;;;;;;6.25;1.08;;;3.50;99.90;;;;;;5028675;28;20045;-56
2023/01/15 07:59:38;;;;;;;10.10;1.45;;;3.50;99.90;;;;;;5008892;28;20045;-56
2023/01/15 08:02:04;;;;;;;5.72;1.33;;;3.50;99.90;;;;;;5022232;28;20045;-54
2023/01/15 08:04:29;;;;;;;4.05;1.30;;;3.40;99.90;;;;;;5024869;28;20057;-53
2023/01/15 08:06:57;;;;;;;5.43;1.38;;;3.40;99.90;;;;;;5027943;28;20042;-54
2023/01/15 08:09:24;;;;;;;7.97;1.10;;;3.40;99.90;;;;;;5018606;28;20441;-55
2023/01/15 08:17:19;;;;;;;7.45;0.82;;;3.50;99.90;;;;;;5008608;28;20172;-54
2023/01/15 08:19:45;;;;;;;7.32;1.50;;;3.40;99.90;;;;;;5003671;28;20096;-54
2023/01/15 08:22:10;;;;;;;9.65;1.33;;;3.40;99.90;;;;;;5021232;28;20516;-51
2023/01/15 08:24:36;;;;;;;5.90;1.75;;;3.50;99.90;;;;;;5023207;28;20041;-54
2023/01/15 08:27:02;;;;;;;12.82;1.33;;;3.40;99.90;;;;;;5028323;28;20042;-57
2023/01/15 08:29:27;;;;;;;5.90;0.93;;;3.50;99.90;;;;;;5025663;28;20041;-57
2023/01/15 08:31:53;;;;;;;4.60;1.08;;;3.50;99.90;;;;;;5024348;28;20460;-59
2023/01/15 08:34:19;;;;;;;9.85;1.17;;;3.40;99.90;;;;;;5036423;28;20425;-56
2023/01/15 08:36:45;;;;;;;8.30;0.80;;;3.50;99.90;;;;;;5033484;28;20072;-61
2023/01/15 08:39:10;;;;;;;4.60;0.93;;;3.50;99.90;;;;;;5025775;28;20099;-52
2023/01/15 08:41:36;;;;;;;4.70;0.90;;;3.40;99.90;;;;;;5028424;28;20036;-56
2023/01/15 08:44:02;;;;;;;5.60;1.02;;;3.40;99.90;;;;;;5028478;28;20041;-58
2023/01/15 08:46:27;;;;;;;6.60;0.73;;;3.40;99.90;;;;;;5030940;28;20041;-57
2023/01/15 08:48:53;;;;;;;7.60;1.45;;;3.40;99.90;;;;;;5026893;28;20046;-57
2023/01/15 08:51:19;;;;;;;11.57;0.90;;;3.40;99.90;;;;;;5023543;28;20053;-56
2023/01/15 08:53:44;;;;;;;5.78;1.75;;;3.40;99.90;;;;;;5023961;28;20037;-57
2023/01/15 08:56:16;;;;;;;4.47;1.10;;;3.40;99.90;;;;;;5021720;28;20045;-53
2023/01/15 08:58:42;;;;;;;5.65;0.93;;;3.40;99.90;;;;;;5026961;28;20037;-55
2023/01/15 09:01:11;;;;;;;9.90;0.80;;;3.50;99.90;;;;;;5020607;28;20120;-56
2023/01/15 09:03:37;;;;;;;12.27;2.40;;;3.50;99.90;;;;;;5030523;28;20049;-58
2023/01/15 09:06:04;;;;;;;4.20;1.02;;;3.50;99.90;;;;;;5028251;28;20481;-53
2023/01/15 09:08:30;;;;;;;3.47;0.95;;;3.50;99.90;;;;;;5026958;28;20511;-53
2023/01/15 09:11:01;;;;;;;10.43;1.25;;;3.50;99.90;;;;;;5025104;28;20033;-54
2023/01/15 09:13:28;;;;;;;4.50;0.75;;;3.50;99.90;;;;;;5041096;28;20041;-54
2023/01/15 09:15:58;;;;;;;7.80;0.90;;;3.50;99.90;;;;;;5027022;28;20037;-58
2023/01/15 09:18:23;;;;;;;10.25;0.98;;;3.60;99.90;;;;;;5027510;28;20045;-49
2023/01/15 09:20:49;;;;;;;5.32;0.90;;;3.60;99.90;;;;;;5022970;28;20030;-59
2023/01/15 09:23:15;;;;;;;16.10;2.47;;;3.60;99.90;;;;;;5025150;28;20036;-54
2023/01/15 09:25:52;;;;;;;5.25;1.10;;;3.70;99.90;;;;;;5023467;28;20033;-54
2023/01/15 09:28:18;;;;;;;8.18;1.35;;;3.70;99.90;;;;;;5025022;28;20547;-58
2023/01/15 09:30:43;;;;;;;3.78;0.73;;;3.70;99.90;;;;;;5020775;28;20498;-53
2023/01/15 09:33:10;;;;;;;3.55;0.70;;;3.70;99.90;;;;;;5027858;28;20029;-51
2023/01/15 09:35:36;;;;;;;3.13;0.80;;;3.70;99.90;;;;;;5007320;28;20084;-55
2023/01/15 09:38:01;;;;;;;5.78;1.10;;;3.70;99.90;;;;;;5037562;28;20071;-57
2023/01/15 09:40:39;;;;;;;1.73;0.98;;;3.80;99.90;;;;;;5025989;28;20722;-57
2023/01/15 09:43:28;;;;;;;5.28;1.15;;;3.70;99.90;;;;;;5026952;28;20045;-57
2023/01/15 09:46:14;;;;;;;4.03;0.65;;;3.70;99.90;;;;;;5007687;28;20466;-57
2023/01/15 09:49:00;;;;;;;7.88;1.77;;;3.60;99.90;;;;;;5023995;28;20131;-55
2023/01/15 09:51:48;;;;;;;4.15;0.70;;;3.70;99.90;;;;;;5002527;28;20053;-52
2023/01/15 09:54:28;;;;;;;4.88;0.93;;;3.60;99.90;;;;;;5023519;28;20128;-54
2023/01/15 09:56:55;;;;;;;3.47;0.65;;;3.60;99.90;;;;;;5016327;28;20497;-53
2023/01/15 09:59:29;;;;;;;3.22;0.68;;;3.50;99.90;;;;;;5020846;28;20046;-59
2023/01/15 10:01:55;;;;;;;3.90;0.70;;;3.50;99.90;;;;;;5020818;28;20095;-59
2023/01/15 10:04:41;;;;;;;2.58;0.70;;;3.50;99.90;;;;;;5025539;28;20485;-53
2023/01/15 10:07:33;;;;;;;2.30;0.50;;;3.50;99.90;;;;;;5017441;28;20042;-55
2023/01/15 10:10:03;;;;;;;4.97;0.70;;;3.60;99.90;;;;;;5017723;28;20033;-57
2023/01/15 10:12:34;;;;;;;1.92;0.55;;;3.60;99.90;;;;;;5021922;28;20394;-54
2023/01/15 10:15:28;;;;;;;2.00;0.57;;;3.60;99.90;;;;;;5014739;28;20041;-54
2023/01/15 10:17:58;;;;;;;3.22;0.40;;;3.60;99.90;;;;;;5005120;28;20099;-54
2023/01/15 10:20:59;;;;;;;2.92;0.75;;;3.60;99.90;;;;;;5022836;28;20045;-52
2023/01/15 10:23:42;;;;;;;4.70;0.90;;;3.60;99.90;;;;;;5020677;28;20046;-57
2023/01/15 10:26:37;;;;;;;4.57;0.65;;;3.60;99.90;;;;;;5020576;28;20509;-52
2023/01/15 10:29:32;;;;;;;4.40;1.10;;;3.60;99.90;;;;;;5015765;28;20041;-58
2023/01/15 10:32:12;;;;;;;5.57;1.00;;;3.50;99.90;;;;;;5021111;28;20564;-56
2023/01/15 10:34:53;;;;;;;5.25;0.90;;;3.50;99.90;;;;;;5001968;28;20044;-55
2023/01/15 10:37:30;;;;;;;5.32;0.85;;;3.50;99.90;;;;;;5022964;28;20662;-57
2023/01/15 10:40:20;;;;;;;4.75;0.63;;;3.50;99.90;;;;;;5023130;28;20751;-54
2023/01/15 10:43:12;;;;;;;5.88;0.73;;;3.60;99.90;;;;;;5020165;28;20124;-53
2023/01/15 10:45:49;;;;;;;13.43;1.90;;;3.80;99.90;;;;;;5022577;28;20048;-59
2023/01/15 10:48:18;;;;;;;2.85;0.80;;;4.10;99.90;;;;;;5024207;28;20061;-55
2023/01/15 10:50:44;;;;;;;2.72;0.55;;;4.20;99.90;;;;;;5002578;28;20103;-52
2023/01/15 10:53:21;;;;;;;7.68;1.20;;;4.20;99.90;;;;;;5002903;28;20099;-55
2023/01/15 10:55:56;;;;;;;5.68;0.70;;;4.10;99.90;;;;;;5023870;28;20064;-52
2023/01/15 10:58:40;;;;;;;4.38;1.05;;;4.00;99.90;;;;;;5021017;28;20041;-55
2023/01/15 11:01:13;;;;;;;7.65;1.38;;;3.80;99.90;;;;;;5000227;28;20061;-55
2023/01/15 11:03:42;;;;;;;5.25;0.65;;;3.80;99.90;;;;;;5027744;28;20044;-48
2023/01/15 11:06:19;;;;;;;1.90;0.60;;;3.80;99.90;;;;;;5030196;28;20135;-53
2023/01/15 11:08:52;;;;;;;7.30;1.38;;;3.80;99.90;;;;;;5009733;28;20037;-55
2023/01/15 11:20:33;;;;;;;7.30;2.25;;;3.80;99.90;;;;;;5024358;28;20850;-56
2023/01/15 11:23:10;;;;;;;4.10;0.60;;;3.90;99.90;;;;;;5006054;28;20034;-58
2023/01/15 11:25:43;;;;;;;5.85;0.93;;;4.00;99.90;;;;;;5022101;28;20037;-56
2023/01/15 11:28:14;;;;;;;5.13;1.60;;;4.00;99.90;;;;;;5016485;28;20559;-57
2023/01/15 11:30:40;;;;;;;3.38;0.88;;;4.10;99.90;;;;;;5020282;28;20053;-59
2023/01/15 11:33:25;;;;;;;12.48;0.98;;;4.10;99.90;;;;;;5019801;28;20728;-59
2023/01/15 11:35:59;;;;;;;6.32;1.50;;;4.10;99.90;;;;;;5022583;28;20042;-60
2023/01/15 11:38:30;;;;;;;7.30;1.52;;;4.10;99.90;;;;;;5017688;28;20129;-58
2023/01/15 11:41:00;;;;;;;3.88;1.15;;;4.10;99.90;;;;;;5015592;28;20049;-59
2023/01/15 11:52:02;;;;;;;4.75;0.70;;;4.00;99.90;;;;;;5020885;28;20056;-60
2023/01/15 11:54:30;;;;;;;6.90;1.85;;;4.00;99.90;;;;;;5019300;28;20072;-59
2023/01/15 11:56:57;;;;;;;4.18;0.90;;;4.10;99.90;;;;;;5017296;28;20045;-59
2023/01/15 11:59:23;;;;;;;8.68;1.00;;;4.10;99.90;;;;;;5021427;28;20041;-59
2023/01/15 12:01:58;;;;;;;6.60;0.98;;;4.10;99.90;;;;;;5017122;28;20405;-59
2023/01/15 12:04:54;;;;;;;9.27;1.17;;;4.10;99.90;;;;;;5024573;28;20040;-59
2023/01/15 12:07:23;;;;;;;3.10;0.68;;;4.10;99.90;;;;;;5020695;28;20481;-57
2023/01/15 12:10:18;;;;;;;5.68;1.08;;;4.10;99.90;;;;;;5022562;28;20108;-59
2023/01/15 12:13:03;;;;;;;11.75;1.17;;;4.00;99.90;;;;;;5017555;28;20045;-56
2023/01/15 12:16:09;;;;;;;11.60;1.17;;;4.00;99.90;;;;;;5023078;28;20057;-55
2023/01/15 12:18:55;;;;;;;6.15;1.67;;;3.90;99.90;;;;;;4989269;28;20054;-59
2023/01/15 12:22:02;;;;;;;6.35;1.10;;;4.00;99.90;;;;;;5006922;28;20566;-58
2023/01/15 12:24:36;;;;;;;4.03;0.93;;;3.90;99.90;;;;;;5028127;28;20516;-60
2023/01/15 12:27:37;;;;;;;6.15;1.13;;;3.90;99.90;;;;;;5028541;28;20103;-60
2023/01/15 12:30:17;;;;;;;4.82;0.95;;;3.90;99.90;;;;;;5021106;28;20116;-59
2023/01/15 12:32:49;;;;;;;8.45;1.02;;;3.90;99.90;;;;;;5023543;28;20175;-57
2023/01/15 12:35:29;;;;;;;8.70;1.40;;;3.90;99.90;;;;;;5032474;28;20049;-57
2023/01/15 12:38:38;;;;;;;5.25;1.13;;;3.90;99.90;;;;;;5024658;28;20049;-56
2023/01/15 12:41:12;;;;;;;10.65;2.65;;;3.90;99.90;;;;;;5024360;28;20712;-59
2023/01/15 12:46:28;;;;;;;5.95;1.10;;;3.90;99.90;;;;;;5024019;28;20054;-56
2023/01/15 12:49:29;;;;;;;4.47;1.08;;;4.00;99.90;;;;;;5023281;28;20071;-56
2023/01/15 12:52:09;;;;;;;4.53;1.25;;;3.90;99.90;;;;;;5024124;28;20037;-56
2023/01/15 12:54:43;;;;;;;7.40;1.13;;;3.90;99.90;;;;;;5025696;28;20120;-54
2023/01/15 12:57:16;;;;;;;4.90;1.23;;;3.90;99.90;;;;;;5029446;28;20042;-55
2023/01/15 12:59:56;;;;;;;12.98;1.35;;;3.90;99.90;;;;;;5040017;28;20033;-53
2023/01/15 13:02:44;;;;;;;9.05;1.08;;;3.80;99.90;;;;;;5016333;28;20489;-54
2023/01/15 13:05:46;;;;;;;9.27;1.33;;;3.90;99.90;;;;;;5034582;28;20707;-60
2023/01/15 13:08:30;;;;;;;6.85;1.10;;;3.90;99.90;;;;;;4976233;28;20061;-55
2023/01/15 13:10:55;;;;;;;6.38;1.08;;;3.90;99.90;;;;;;5025971;28;20120;-56
2023/01/15 13:13:56;;;;;;;9.45;2.53;;;3.90;99.90;;;;;;5022085;28;20109;-54
2023/01/15 13:16:36;;;;;;;6.70;1.88;;;3.90;99.90;;;;;;5021484;28;20539;-52
2023/01/15 13:19:20;;;;;;;8.52;1.65;;;4.00;99.90;;;;;;5017445;28;20055;-58
2023/01/15 13:21:51;;;;;;;5.55;1.20;;;4.00;99.90;;;;;;5001369;28;20029;-51
2023/01/15 13:24:48;;;;;;;4.32;0.77;;;4.00;99.90;;;;;;5020588;28;20045;-58
2023/01/15 13:27:46;;;;;;;7.80;1.37;;;4.00;99.90;;;;;;5025898;28;20390;-51
2023/01/15 13:30:18;;;;;;;14.23;1.15;;;4.00;99.90;;;;;;5020567;28;20405;-59
2023/01/15 13:32:50;;;;;;;7.47;1.45;;;3.90;99.90;;;;;;5022405;28;20044;-59
2023/01/15 13:35:24;;;;;;;5.40;1.27;;;3.90;99.90;;;;;;5027435;28;20117;-53
2023/01/15 13:37:53;;;;;;;7.93;1.02;;;3.90;99.90;;;;;;5021426;28;20094;-59
2023/01/15 13:40:37;;;;;;;4.30;1.75;;;3.90;99.90;;;;;;5019924;28;20037;-59
2023/01/15 13:43:04;;;;;;;5.22;1.08;;;3.90;99.90;;;;;;5023914;28;20068;-56
2023/01/15 13:45:41;;;;;;;6.25;1.33;;;3.90;99.90;;;;;;5020892;28;20029;-56
2023/01/15 13:48:15;;;;;;;;;;;3.80;99.90;;;;;;5010553;28;20053;-54
2023/01/15 13:50:53;;;;;;;6.00;1.15;;;3.80;99.90;;;;;;5005312;28;20428;-54
2023/01/15 13:53:29;;;;;;;5.43;1.05;;;3.90;99.90;;;;;;5018374;28;20038;-54
2023/01/15 13:56:13;;;;;;;8.85;1.40;;;3.90;99.90;;;;;;5028783;28;20040;-59
2023/01/15 13:58:52;;;;;;;8.50;2.05;;;3.90;99.90;;;;;;5027258;28;20049;-58
2023/01/15 14:01:20;;;;;;;6.82;0.95;;;3.90;99.90;;;;;;5023999;28;20052;-54
2023/01/15 14:04:05;;;;;;;5.10;0.80;;;3.90;99.90;;;;;;5030618;28;20102;-55
2023/01/15 14:06:45;;;;;;;3.78;0.85;;;3.90;99.90;;;;;;5025715;28;20049;-53
2023/01/15 14:09:30;;;;;;;6.20;1.27;;;3.90;99.90;;;;;;5005368;28;20049;-56
2023/01/15 14:12:30;;;;;;;6.65;1.10;;;4.00;99.90;;;;;;5024894;28;20037;-54
2023/01/15 14:15:15;;;;;;;6.38;1.00;;;3.90;99.90;;;;;;5017021;28;20049;-55
2023/01/15 14:18:01;;;;;;;6.82;0.88;;;3.80;99.90;;;;;;5030616;28;20072;-53